createdAt,value
2017-11-22T00:00:02.207Z,107991.63
2017-11-22T00:02:31.301Z,107991.63
2017-11-22T00:05:00.362Z,107991.63
2017-11-22T00:07:28.684Z,107991.63
2017-11-22T00:09:57.891Z,107991.63
2017-11-22T00:12:26.201Z,107991.63
2017-11-22T00:14:54.507Z,107991.63
2017-11-22T00:17:22.812Z,107991.63
2017-11-22T00:19:51.877Z,107991.63
2017-11-22T00:22:20.194Z,107991.63
2017-11-22T00:24:48.511Z,107991.63
2017-11-22T00:27:16.811Z,107991.63
2017-11-22T00:29:45.123Z,107991.63
2017-11-22T00:32:13.463Z,107991.63
2017-11-22T00:34:41.792Z,107991.63
2017-11-22T00:37:10.085Z,107991.63
2017-11-22T00:39:38.395Z,107991.63
2017-11-22T00:42:06.687Z,107991.63
2017-11-22T00:44:35.757Z,107991.63
2017-11-22T00:47:04.073Z,107991.63
2017-11-22T00:49:32.364Z,107991.63
2017-11-22T00:52:00.697Z,107991.63
2017-11-22T00:54:29.771Z,107991.63
2017-11-22T00:56:58.103Z,107991.63
2017-11-22T00:59:26.444Z,107991.63
2017-11-22T01:01:54.798Z,107991.63
2017-11-22T01:04:23.124Z,107991.63
2017-11-22T01:06:51.433Z,107991.63
2017-11-22T01:09:19.728Z,107991.63
2017-11-22T01:11:48.061Z,107991.63
2017-11-22T01:14:17.144Z,107991.63
2017-11-22T01:16:46.212Z,107991.63
2017-11-22T01:19:14.506Z,107991.63
2017-11-22T01:21:43.592Z,107991.63
2017-11-22T01:24:11.896Z,107991.63
2017-11-22T01:26:40.196Z,107991.63
2017-11-22T01:29:08.513Z,107991.63
2017-11-22T01:31:36.853Z,107991.63
2017-11-22T01:34:05.172Z,107991.63
2017-11-22T01:36:33.486Z,107991.63
2017-11-22T01:39:01.811Z,107991.63
2017-11-22T01:41:30.099Z,107991.63
2017-11-22T01:43:58.411Z,107991.63
2017-11-22T01:46:26.712Z,107991.63
2017-11-22T01:48:55.014Z,107991.63
2017-11-22T01:51:23.327Z,107991.63
2017-11-22T01:53:52.402Z,107991.63
2017-11-22T01:56:20.714Z,107991.63
2017-11-22T01:58:49.074Z,107991.63
2017-11-22T02:01:18.172Z,107991.63
2017-11-22T02:03:47.279Z,107991.63
2017-11-22T02:06:15.586Z,107991.63
2017-11-22T02:08:43.925Z,107991.63
2017-11-22T02:11:13.005Z,107991.63
2017-11-22T02:13:41.300Z,107991.63
2017-11-22T02:16:09.618Z,107991.63
2017-11-22T02:18:37.933Z,107991.63
2017-11-22T02:21:06.242Z,107991.63
2017-11-22T02:23:34.545Z,107991.63
2017-11-22T02:26:02.871Z,107991.63
2017-11-22T02:28:31.940Z,107991.63
2017-11-22T02:31:00.272Z,107991.63
2017-11-22T02:33:28.587Z,107991.63
2017-11-22T02:35:56.907Z,107991.63
2017-11-22T02:38:25.979Z,107991.63
2017-11-22T02:40:54.300Z,107991.63
2017-11-22T02:43:22.607Z,107991.63
2017-11-22T02:45:50.923Z,107991.63
2017-11-22T02:48:19.997Z,107991.63
2017-11-22T02:50:48.313Z,107991.63
2017-11-22T02:53:16.628Z,107991.63
2017-11-22T02:55:44.956Z,107991.63
2017-11-22T02:58:14.054Z,107991.63
2017-11-22T03:00:43.151Z,107991.63
2017-11-22T03:03:12.216Z,107991.63
2017-11-22T03:05:40.544Z,107991.63
2017-11-22T03:08:08.845Z,107991.63
2017-11-22T03:10:37.134Z,107991.63
2017-11-22T03:13:05.475Z,107991.63
2017-11-22T03:15:33.794Z,107991.63
2017-11-22T03:18:02.095Z,107991.63
2017-11-22T03:20:31.178Z,107991.63
2017-11-22T03:22:59.479Z,107991.63
2017-11-22T03:25:27.817Z,107991.63
2017-11-22T03:27:56.132Z,107991.63
2017-11-22T03:30:24.460Z,107991.63
2017-11-22T03:32:52.749Z,107991.63
2017-11-22T03:35:21.068Z,107991.63
2017-11-22T03:37:49.378Z,107991.63
2017-11-22T03:40:17.695Z,107991.63
2017-11-22T03:42:46.003Z,107991.63
2017-11-22T03:45:14.310Z,107991.63
2017-11-22T03:47:42.617Z,107991.63
2017-11-22T03:50:16.821Z,107991.63
2017-11-22T03:52:50.768Z,107991.63
2017-11-22T03:55:19.085Z,107991.63
2017-11-22T03:57:49.190Z,107991.63
2017-11-22T04:00:18.535Z,107991.63
2017-11-22T04:02:52.509Z,107991.63
2017-11-22T04:05:20.844Z,107991.63
2017-11-22T04:07:52.335Z,107991.63
2017-11-22T04:10:20.674Z,107991.63
2017-11-22T04:12:49.033Z,107991.63
2017-11-22T04:15:17.333Z,107991.63
2017-11-22T04:17:46.455Z,107991.63
2017-11-22T04:20:20.309Z,107991.63
2017-11-22T04:22:49.431Z,107991.63
2017-11-22T04:25:18.510Z,107991.63
2017-11-22T04:27:47.585Z,107991.63
2017-11-22T04:30:15.908Z,107991.63
2017-11-22T04:32:44.226Z,107991.63
2017-11-22T04:35:12.543Z,107991.63
2017-11-22T04:37:41.637Z,107991.63
2017-11-22T04:40:10.712Z,107991.63
2017-11-22T04:42:39.004Z,107991.63
2017-11-22T04:45:08.076Z,107991.63
2017-11-22T04:47:36.387Z,107991.63
2017-11-22T04:50:04.706Z,107991.63
2017-11-22T04:52:33.013Z,107991.63
2017-11-22T04:55:01.339Z,107991.63
2017-11-22T04:57:29.663Z,107991.63
2017-11-22T04:59:58.062Z,107991.63
2017-11-22T05:02:27.143Z,107991.63
2017-11-22T05:04:55.455Z,107991.63
2017-11-22T05:07:23.758Z,107991.63
2017-11-22T05:09:52.067Z,107991.63
2017-11-22T05:12:20.363Z,107991.63
2017-11-22T05:14:49.449Z,107991.63
2017-11-22T05:17:18.519Z,107991.63
2017-11-22T05:19:46.851Z,107991.63
2017-11-22T05:22:15.176Z,107991.63
2017-11-22T05:24:43.488Z,107991.63
2017-11-22T05:27:12.581Z,107991.63
2017-11-22T05:29:41.668Z,107991.63
2017-11-22T05:32:10.750Z,107991.63
2017-11-22T05:34:39.080Z,107991.63
2017-11-22T05:37:07.388Z,107991.63
2017-11-22T05:39:35.700Z,107991.63
2017-11-22T05:42:04.795Z,107991.63
2017-11-22T05:44:33.928Z,107991.63
2017-11-22T05:47:02.231Z,107991.63
2017-11-22T05:49:30.533Z,107991.63
2017-11-22T05:51:59.631Z,107991.63
2017-11-22T05:54:28.719Z,107991.63
2017-11-22T05:56:57.034Z,107991.63
2017-11-22T05:59:25.366Z,107991.63
2017-11-22T06:01:53.669Z,107991.63
2017-11-22T06:04:22.727Z,107991.63
2017-11-22T06:06:51.063Z,107991.63
2017-11-22T06:09:19.371Z,107991.63
2017-11-22T06:11:48.459Z,107991.63
2017-11-22T06:14:16.769Z,107991.63
2017-11-22T06:16:45.855Z,107991.63
2017-11-22T06:19:14.145Z,107991.63
2017-11-22T06:21:43.245Z,107991.63
2017-11-22T06:24:12.360Z,107991.63
2017-11-22T06:26:40.688Z,107991.63
2017-11-22T06:29:09.006Z,107991.63
2017-11-22T06:31:37.336Z,107991.63
2017-11-22T06:34:05.656Z,107991.63
2017-11-22T06:36:34.779Z,107991.63
2017-11-22T06:39:06.004Z,107991.63
2017-11-22T06:41:34.344Z,107991.63
2017-11-22T06:44:02.685Z,107991.63
2017-11-22T06:46:30.994Z,107991.63
2017-11-22T06:48:59.311Z,107991.63
2017-11-22T06:51:27.606Z,107991.63
2017-11-22T06:53:55.944Z,107991.63
2017-11-22T06:56:24.267Z,107991.63
2017-11-22T06:58:52.610Z,107991.63
2017-11-22T07:01:21.677Z,107991.63
2017-11-22T07:03:55.803Z,107991.63
2017-11-22T07:06:24.121Z,107991.63
2017-11-22T07:08:52.468Z,107991.63
2017-11-22T07:11:21.538Z,107991.63
2017-11-22T07:13:49.856Z,107991.63
2017-11-22T07:16:23.676Z,107991.63
2017-11-22T07:18:51.975Z,107991.63
2017-11-22T07:21:20.284Z,107991.63
2017-11-22T07:23:48.610Z,107991.63
2017-11-22T07:26:16.917Z,107991.63
2017-11-22T07:28:45.227Z,107991.63
2017-11-22T07:31:14.308Z,107991.63
2017-11-22T07:33:42.612Z,107991.63
2017-11-22T07:36:17.279Z,107991.63
2017-11-22T07:38:45.590Z,107991.63
2017-11-22T07:41:13.890Z,107991.63
2017-11-22T07:43:42.968Z,107991.63
2017-11-22T07:46:12.032Z,107991.63
2017-11-22T07:48:40.293Z,107991.63
2017-11-22T07:51:14.032Z,107991.63
2017-11-22T07:53:42.291Z,107991.63
2017-11-22T07:56:10.578Z,107991.63
2017-11-22T07:58:38.857Z,107991.63
2017-11-22T08:01:07.146Z,107991.63
2017-11-22T08:03:35.418Z,107991.63
2017-11-22T08:06:03.691Z,107991.63
2017-11-22T08:08:31.964Z,107991.63
2017-11-22T08:11:00.244Z,107991.63
2017-11-22T08:13:28.517Z,107991.63
2017-11-22T08:15:56.801Z,107991.63
2017-11-22T08:18:25.069Z,107991.63
2017-11-22T08:20:55.302Z,107991.63
2017-11-22T08:23:24.983Z,107991.63
2017-11-22T08:25:54.908Z,107991.63
2017-11-22T08:28:23.200Z,107991.63
2017-11-22T08:30:51.474Z,107991.63
2017-11-22T08:33:19.738Z,107991.63
2017-11-22T08:35:48.020Z,107991.63
2017-11-22T08:38:16.287Z,107991.63
2017-11-22T08:40:44.566Z,107991.63
2017-11-22T08:43:18.280Z,107991.63
2017-11-22T08:45:46.561Z,107991.63
2017-11-22T08:48:15.608Z,107991.63
2017-11-22T08:50:43.892Z,107991.63
2017-11-22T08:53:12.164Z,107991.63
2017-11-22T08:55:45.773Z,107991.63
2017-11-22T08:58:16.853Z,107991.63
2017-11-22T09:00:45.900Z,107991.63
2017-11-22T09:03:14.982Z,107991.63
2017-11-22T09:05:48.986Z,107991.63
2017-11-22T09:08:17.266Z,107991.63
2017-11-22T09:10:45.541Z,107991.63
2017-11-22T09:13:15.765Z,107991.63
2017-11-22T09:15:44.049Z,107991.63
2017-11-22T09:18:13.278Z,107991.63
2017-11-22T09:20:41.556Z,107991.63
2017-11-22T09:23:09.823Z,107991.63
2017-11-22T09:25:38.105Z,107991.63
2017-11-22T09:28:06.389Z,107991.63
2017-11-22T09:30:34.667Z,107991.63
2017-11-22T09:33:02.931Z,107991.63
2017-11-22T09:35:31.199Z,107991.63
2017-11-22T09:38:00.244Z,107991.63
2017-11-22T09:40:29.288Z,107991.63
2017-11-22T09:42:57.556Z,107991.63
2017-11-22T09:45:25.831Z,107991.63
2017-11-22T09:47:54.108Z,107991.63
2017-11-22T09:50:22.383Z,107991.63
2017-11-22T09:52:50.645Z,107991.63
2017-11-22T09:55:18.941Z,107991.63
2017-11-22T09:57:47.189Z,107991.63
2017-11-22T10:00:15.462Z,107991.63
2017-11-22T10:02:43.729Z,107991.63
2017-11-22T10:05:11.997Z,107991.63
2017-11-22T10:07:41.014Z,107991.63
2017-11-22T10:10:09.293Z,107991.63
2017-11-22T10:12:37.557Z,107991.63
2017-11-22T10:15:05.844Z,107991.63
2017-11-22T10:17:34.100Z,107991.63
2017-11-22T10:20:04.364Z,107991.63
2017-11-22T10:22:38.177Z,107991.63
2017-11-22T10:25:10.797Z,107991.63
2017-11-22T10:27:43.962Z,107991.63
2017-11-22T10:30:13.937Z,107991.63
2017-11-22T10:32:47.600Z,107991.63
2017-11-22T10:35:16.747Z,107991.63
2017-11-22T10:37:45.828Z,107991.63
2017-11-22T10:40:14.115Z,107991.63
2017-11-22T10:42:42.377Z,107991.63
2017-11-22T10:45:10.630Z,107991.63
2017-11-22T10:47:38.913Z,107991.63
2017-11-22T10:50:07.184Z,107991.63
2017-11-22T10:52:35.463Z,107991.63
2017-11-22T10:55:03.735Z,107991.63
2017-11-22T10:57:32.009Z,107991.63
2017-11-22T11:00:01.105Z,107991.63
2017-11-22T11:02:29.376Z,107991.63
2017-11-22T11:04:57.653Z,107991.63
2017-11-22T11:07:25.937Z,107991.63
2017-11-22T11:09:54.209Z,107991.63
2017-11-22T11:12:22.488Z,107991.63
2017-11-22T11:14:50.759Z,107991.63
2017-11-22T11:17:19.029Z,107991.63
2017-11-22T11:19:48.071Z,107991.63
2017-11-22T11:22:16.352Z,107991.63
2017-11-22T11:25:08.953Z,107991.63
2017-11-22T11:27:37.218Z,107991.63
2017-11-22T11:30:06.241Z,107991.63
2017-11-22T11:32:34.510Z,107991.63
2017-11-22T11:35:02.776Z,107991.63
2017-11-22T11:37:31.044Z,107991.63
2017-11-22T11:40:00.160Z,107991.63
2017-11-22T11:42:28.508Z,107991.63
2017-11-22T11:44:57.597Z,107991.63
2017-11-22T11:47:26.741Z,107991.63
2017-11-22T11:49:55.081Z,107991.63
2017-11-22T11:52:24.189Z,107991.63
2017-11-22T11:54:52.517Z,107991.63
2017-11-22T11:57:20.847Z,107991.63
2017-11-22T11:59:49.200Z,107991.63
2017-11-22T12:02:18.287Z,107991.63
2017-11-22T12:04:46.618Z,107991.63
2017-11-22T12:07:14.950Z,107991.63
2017-11-22T12:09:44.105Z,107991.63
2017-11-22T12:12:13.353Z,107991.63
2017-11-22T12:14:42.475Z,107991.63
2017-11-22T12:17:10.763Z,107991.63
2017-11-22T12:19:39.063Z,107991.63
2017-11-22T12:22:12.849Z,107991.63
2017-11-22T12:24:41.181Z,107991.63
2017-11-22T12:27:10.249Z,107991.63
2017-11-22T12:29:38.547Z,107991.63
2017-11-22T12:32:07.624Z,107991.63
2017-11-22T12:34:35.910Z,107991.63
2017-11-22T12:37:04.986Z,107991.63
2017-11-22T12:39:33.288Z,107991.63
2017-11-22T12:42:02.366Z,107991.63
2017-11-22T12:44:30.648Z,107991.63
2017-11-22T12:46:59.703Z,107991.63
2017-11-22T12:49:27.997Z,107991.63
2017-11-22T12:51:56.295Z,107991.63
2017-11-22T12:54:25.353Z,107991.63
2017-11-22T12:56:53.680Z,107991.63
2017-11-22T12:59:22.739Z,107991.63
2017-11-22T13:01:51.028Z,107991.63
2017-11-22T13:04:19.347Z,107991.63
2017-11-22T13:06:47.657Z,107991.63
2017-11-22T13:09:15.950Z,107991.63
2017-11-22T13:11:58.749Z,107991.63
2017-11-22T13:14:27.047Z,107991.63
2017-11-22T13:16:55.373Z,107991.63
2017-11-22T13:19:23.680Z,107991.63
2017-11-22T13:21:51.978Z,107991.63
2017-11-22T13:24:20.292Z,107991.63
2017-11-22T13:26:48.591Z,107991.63
2017-11-22T13:29:16.879Z,107991.63
2017-11-22T13:31:45.192Z,107991.63
2017-11-22T13:34:13.508Z,107991.63
2017-11-22T13:36:41.822Z,107991.63
2017-11-22T13:39:10.132Z,107991.63
2017-11-22T13:41:44.693Z,107991.63
2017-11-22T13:44:13.004Z,107991.63
2017-11-22T13:46:41.289Z,107991.63
2017-11-22T13:49:09.598Z,107991.63
2017-11-22T13:51:38.671Z,107991.63
2017-11-22T13:54:06.970Z,107991.63
2017-11-22T13:56:35.284Z,107991.63
2017-11-22T13:59:03.576Z,107991.63
2017-11-22T14:01:31.872Z,107991.63
2017-11-22T14:04:00.170Z,107991.63
2017-11-22T14:06:29.233Z,107991.63
2017-11-22T14:08:57.523Z,107991.63
2017-11-22T14:11:25.808Z,107991.63
2017-11-22T14:13:54.857Z,107991.63
2017-11-22T14:16:23.161Z,107991.63
2017-11-22T14:18:51.462Z,107991.63
2017-11-22T14:21:20.521Z,107991.63
2017-11-22T14:23:48.821Z,107991.63
2017-11-22T14:26:17.902Z,107991.63
2017-11-22T14:28:46.237Z,107991.63
2017-11-22T14:31:14.532Z,107991.63
2017-11-22T14:33:42.817Z,107991.63
2017-11-22T14:36:11.133Z,107991.63
2017-11-22T14:38:40.197Z,107991.63
2017-11-22T14:41:08.512Z,107991.63
2017-11-22T14:43:36.832Z,107991.63
2017-11-22T14:46:05.117Z,107991.63
2017-11-22T14:48:33.424Z,107991.63
2017-11-22T14:51:02.479Z,107991.63
2017-11-22T14:53:30.818Z,107991.63
2017-11-22T14:55:59.108Z,107991.63
2017-11-22T14:58:27.412Z,107991.63
2017-11-22T15:00:55.696Z,107991.63
2017-11-22T15:03:23.994Z,107991.63
2017-11-22T15:05:52.280Z,107991.63
2017-11-22T15:08:21.342Z,107991.63
2017-11-22T15:10:49.655Z,107991.63
2017-11-22T15:13:18.726Z,107991.63
2017-11-22T15:15:47.029Z,107991.63
2017-11-22T15:18:16.098Z,107991.63
2017-11-22T15:20:44.391Z,107991.63
2017-11-22T15:23:13.463Z,107991.63
2017-11-22T15:25:41.751Z,107991.63
2017-11-22T15:28:10.064Z,107991.63
2017-11-22T15:30:38.365Z,107991.63
2017-11-22T15:33:07.445Z,107991.63
2017-11-22T15:35:35.744Z,107991.63
2017-11-22T15:38:04.037Z,107991.63
2017-11-22T15:40:32.342Z,107991.63
2017-11-22T15:43:01.391Z,107991.63
2017-11-22T15:45:29.690Z,107991.63
2017-11-22T15:47:57.992Z,107991.63
2017-11-22T15:50:27.071Z,107991.63
2017-11-22T15:52:55.363Z,107991.63
2017-11-22T15:55:24.428Z,107991.63
2017-11-22T15:57:52.749Z,107991.63
2017-11-22T16:00:21.045Z,107991.63
2017-11-22T16:02:49.339Z,107991.63
2017-11-22T16:05:17.618Z,107991.63
2017-11-22T16:07:45.922Z,107991.63
2017-11-22T16:10:14.250Z,107991.63
2017-11-22T16:12:42.556Z,107991.63
2017-11-22T16:15:10.832Z,107991.63
2017-11-22T16:17:39.182Z,107991.63
2017-11-22T16:20:07.494Z,107991.63
2017-11-22T16:22:35.830Z,107991.63
2017-11-22T16:25:04.119Z,107991.63
2017-11-22T16:27:32.468Z,107991.63
2017-11-22T16:30:01.509Z,107991.63
2017-11-22T16:32:29.812Z,107991.63
2017-11-22T16:34:58.092Z,107991.63
2017-11-22T16:37:27.198Z,107991.63
2017-11-22T16:39:56.302Z,107991.63
2017-11-22T16:42:24.619Z,107991.63
2017-11-22T16:44:52.908Z,107991.63
2017-11-22T16:47:21.199Z,107991.63
2017-11-22T16:49:49.509Z,107991.63
2017-11-22T16:52:17.800Z,107991.63
2017-11-22T16:54:46.143Z,107991.63
2017-11-22T16:57:15.208Z,107991.63
2017-11-22T16:59:43.489Z,107991.63
2017-11-22T17:02:11.779Z,107991.63
2017-11-22T17:04:40.124Z,107991.63
2017-11-22T17:07:08.465Z,107991.63
2017-11-22T17:09:36.760Z,107991.63
2017-11-22T17:12:05.118Z,107991.63
2017-11-22T17:14:33.424Z,107991.63
2017-11-22T17:17:01.727Z,107991.63
2017-11-22T17:19:30.028Z,107991.63
2017-11-22T17:21:58.364Z,107991.63
2017-11-22T17:24:26.675Z,107991.63
2017-11-22T17:26:55.795Z,107991.63
2017-11-22T17:29:24.089Z,107991.63
2017-11-22T17:31:52.422Z,107991.63
2017-11-22T17:34:20.761Z,107991.63
2017-11-22T17:36:49.094Z,107991.63
2017-11-22T17:39:18.197Z,107991.63
2017-11-22T17:41:46.498Z,107991.63
2017-11-22T17:44:14.847Z,107991.63
2017-11-22T17:46:43.941Z,107991.63
2017-11-22T17:49:13.079Z,107991.63
2017-11-22T17:51:41.365Z,107991.63
2017-11-22T17:54:09.669Z,107991.63
2017-11-22T17:56:38.019Z,107991.63
2017-11-22T17:59:06.370Z,107991.63
2017-11-22T18:01:34.725Z,107991.63
2017-11-22T18:04:03.068Z,107991.63
2017-11-22T18:06:31.421Z,107991.63
2017-11-22T18:08:59.783Z,107991.63
2017-11-22T18:11:28.469Z,107991.63
2017-11-22T18:13:56.810Z,107991.63
2017-11-22T18:16:25.926Z,107991.63
2017-11-22T18:18:54.284Z,107991.63
2017-11-22T18:21:23.415Z,107991.63
2017-11-22T18:23:51.754Z,107991.63
2017-11-22T18:26:20.845Z,107991.63
2017-11-22T18:28:49.956Z,107991.63
2017-11-22T18:31:19.057Z,107991.63
2017-11-22T18:33:48.116Z,107991.63
2017-11-22T18:36:37.362Z,107991.63
2017-11-22T18:39:05.976Z,107991.63
2017-11-22T18:41:34.379Z,107991.63
2017-11-22T18:44:12.636Z,107991.63
2017-11-22T18:46:41.756Z,107991.63
2017-11-22T18:49:10.073Z,107991.63
2017-11-22T18:51:38.414Z,107991.63
2017-11-22T18:54:06.961Z,107991.63
2017-11-22T18:56:36.152Z,107991.63
2017-11-22T18:59:06.135Z,107991.63
2017-11-22T19:01:34.405Z,107991.63
2017-11-22T19:04:03.428Z,107991.63
2017-11-22T19:06:33.133Z,107991.63
2017-11-22T19:09:02.279Z,107991.63
2017-11-22T19:11:38.948Z,107991.63
2017-11-22T19:14:07.277Z,107991.63
2017-11-22T19:16:35.880Z,107991.63
2017-11-22T19:19:04.195Z,107991.63
2017-11-22T19:21:32.467Z,107991.63
2017-11-22T19:24:01.143Z,107991.63
2017-11-22T19:26:29.481Z,107991.63
2017-11-22T19:28:57.783Z,107991.63
2017-11-22T19:31:26.096Z,107991.63
2017-11-22T19:33:59.820Z,107991.63
2017-11-22T19:36:28.086Z,107991.63
2017-11-22T19:38:56.396Z,107991.63
2017-11-22T19:41:24.693Z,107991.63
2017-11-22T19:43:53.000Z,107991.63
2017-11-22T19:46:22.322Z,107991.63
2017-11-22T19:48:50.817Z,107991.63
2017-11-22T19:51:19.309Z,107991.63
2017-11-22T19:53:47.783Z,107991.63
2017-11-22T19:56:16.107Z,107991.63
2017-11-22T19:58:44.531Z,107991.63
2017-11-22T20:01:13.027Z,107991.63
2017-11-22T20:03:41.500Z,107991.63
2017-11-22T20:06:09.850Z,107991.63
2017-11-22T20:08:44.055Z,107991.63
2017-11-22T20:11:13.179Z,107991.63
2017-11-22T20:13:41.486Z,107991.63
2017-11-22T20:16:09.798Z,107991.63
2017-11-22T20:18:38.120Z,107991.63
2017-11-22T20:21:06.433Z,107991.63
2017-11-22T20:23:34.756Z,107991.63
2017-11-22T20:26:03.810Z,107991.63
2017-11-22T20:28:32.071Z,107991.63
2017-11-22T20:37:05.786Z,97516.30
2017-11-22T20:39:34.073Z,97517.24
2017-11-22T20:42:02.459Z,97517.56
2017-11-22T20:44:30.746Z,97525.02
2017-11-22T20:46:59.799Z,97518.33
2017-11-22T20:49:28.098Z,97509.38
2017-11-22T20:51:56.368Z,97507.94
2017-11-22T20:54:24.676Z,97506.56
2017-11-22T20:56:52.969Z,97505.70
2017-11-22T20:59:21.255Z,97509.02
2017-11-22T21:01:49.598Z,97513.84
2017-11-22T21:04:17.881Z,97508.86
2017-11-22T21:06:46.163Z,97508.05
2017-11-22T21:09:14.414Z,97504.93
2017-11-22T21:11:42.706Z,97505.97
2017-11-22T21:14:11.008Z,97507.52
2017-11-22T21:16:41.766Z,97503.09
2017-11-22T21:19:10.044Z,97502.53
2017-11-22T21:21:39.108Z,97505.43
2017-11-22T21:24:08.175Z,97507.33
2017-11-22T21:26:36.408Z,97502.63
2017-11-22T21:29:04.698Z,97501.92
2017-11-22T21:31:32.987Z,97496.92
2017-11-22T21:34:01.273Z,97491.31
2017-11-22T21:36:29.553Z,97492.08
2017-11-22T21:38:57.835Z,97491.95
2017-11-22T21:41:26.108Z,97499.00
2017-11-22T21:43:54.401Z,97501.39
2017-11-22T21:46:22.686Z,97503.73
2017-11-22T21:48:50.978Z,97506.19
2017-11-22T21:51:19.996Z,97500.84
2017-11-22T21:53:48.281Z,97496.35
2017-11-22T21:56:16.567Z,97494.66
2017-11-22T21:58:44.841Z,97494.61
2017-11-22T22:01:13.125Z,97500.35
2017-11-22T22:03:41.406Z,97501.55
2017-11-22T22:06:10.479Z,97497.34
2017-11-22T22:08:38.715Z,97501.84
2017-11-22T22:11:07.773Z,97503.88
2017-11-22T22:13:36.949Z,97500.99
2017-11-22T22:16:05.233Z,97496.84
2017-11-22T22:18:33.472Z,97489.83
2017-11-22T22:21:02.483Z,97484.39
2017-11-22T22:23:30.772Z,97480.66
2017-11-22T22:25:59.048Z,97478.91
2017-11-22T22:28:27.307Z,97475.47
2017-11-22T22:30:55.591Z,97479.63
2017-11-22T22:33:29.895Z,97477.87
2017-11-22T22:49:38.994Z,97486.77
2017-11-22T22:52:16.228Z,97480.15
2017-11-22T22:54:47.377Z,97475.20
2017-11-22T22:57:16.408Z,97477.33
2017-11-22T22:59:50.069Z,97479.76
2017-11-22T23:02:22.968Z,97484.23
2017-11-22T23:04:51.375Z,97489.28
2017-11-22T23:07:20.476Z,97485.45
2017-11-22T23:09:49.563Z,97498.12
2017-11-22T23:12:18.609Z,97491.05
2017-11-22T23:14:46.851Z,97493.27
2017-11-22T23:17:15.096Z,97488.05
2017-11-22T23:19:43.356Z,97498.22
2017-11-22T23:22:11.599Z,97491.31
2017-11-22T23:24:39.954Z,97493.97
2017-11-22T23:27:08.211Z,97502.88
2017-11-22T23:29:37.239Z,97494.30
2017-11-22T23:32:05.532Z,97503.86
2017-11-22T23:34:33.784Z,97508.43
2017-11-22T23:37:02.036Z,97509.62
2017-11-22T23:39:31.099Z,97513.52
2017-11-22T23:41:59.342Z,97511.89
2017-11-22T23:44:27.646Z,97511.08
2017-11-22T23:46:55.890Z,97508.55
2017-11-22T23:49:24.146Z,97507.80
2017-11-22T23:51:52.412Z,97510.53
2017-11-22T23:54:21.456Z,97506.24
2017-11-22T23:56:49.704Z,97500.34
2017-11-22T23:59:17.947Z,97508.33
